sensor_id;sensor_type;location;lat;lon;timestamp;pressure;altitude;pressure_sealevel;temperature;humidity
71105;BME280;58760;48.716;8.962;2022-12-07T00:01:25;96508.84;;;3.00;94.31
71105;BME280;58760;48.716;8.962;2022-12-07T00:03:53;96508.78;;;3.11;94.44
71105;BME280;58760;48.716;8.962;2022-12-07T00:06:20;96507.53;;;3.05;94.07
71105;BME280;58760;48.716;8.962;2022-12-07T00:08:46;96510.38;;;3.02;94.41
71105;BME280;58760;48.716;8.962;2022-12-07T00:11:19;96514.41;;;3.06;94.49
71105;BME280;58760;48.716;8.962;2022-12-07T00:13:46;96511.59;;;2.98;94.72
71105;BME280;58760;48.716;8.962;2022-12-07T00:16:15;96508.06;;;3.09;95.56
71105;BME280;58760;48.716;8.962;2022-12-07T00:18:42;96512.03;;;3.03;95.20
71105;BME280;58760;48.716;8.962;2022-12-07T00:21:15;96508.97;;;2.98;95.39
71105;BME280;58760;48.716;8.962;2022-12-07T00:23:43;96508.31;;;3.06;95.25
71105;BME280;58760;48.716;8.962;2022-12-07T00:26:21;96503.09;;;3.06;95.22
71105;BME280;58760;48.716;8.962;2022-12-07T00:28:49;96502.19;;;3.16;95.00
71105;BME280;58760;48.716;8.962;2022-12-07T00:31:16;96503.34;;;3.24;93.16
71105;BME280;58760;48.716;8.962;2022-12-07T00:33:42;96498.41;;;3.09;92.80
71105;BME280;58760;48.716;8.962;2022-12-07T00:36:10;96500.53;;;3.15;93.00
71105;BME280;58760;48.716;8.962;2022-12-07T00:38:37;96495.09;;;3.07;92.72
71105;BME280;58760;48.716;8.962;2022-12-07T00:41:05;96505.59;;;3.07;93.28
71105;BME280;58760;48.716;8.962;2022-12-07T00:43:32;96500.94;;;3.11;93.50
71105;BME280;58760;48.716;8.962;2022-12-07T00:45:57;96502.03;;;3.08;92.93
71105;BME280;58760;48.716;8.962;2022-12-07T00:48:24;96500.09;;;3.10;92.39
71105;BME280;58760;48.716;8.962;2022-12-07T00:50:50;96498.88;;;3.14;92.18
71105;BME280;58760;48.716;8.962;2022-12-07T00:53:16;96500.34;;;3.07;92.03
71105;BME280;58760;48.716;8.962;2022-12-07T00:55:41;96501.25;;;3.17;92.11
71105;BME280;58760;48.716;8.962;2022-12-07T00:58:07;96505.91;;;3.14;91.86
71105;BME280;58760;48.716;8.962;2022-12-07T01:00:33;96500.78;;;3.12;91.91
71105;BME280;58760;48.716;8.962;2022-12-07T01:03:00;96499.13;;;3.11;91.96
71105;BME280;58760;48.716;8.962;2022-12-07T01:05:25;96502.13;;;3.07;92.11
71105;BME280;58760;48.716;8.962;2022-12-07T01:07:51;96496.81;;;2.97;91.63
71105;BME280;58760;48.716;8.962;2022-12-07T01:10:16;96502.56;;;2.91;92.35
71105;BME280;58760;48.716;8.962;2022-12-07T01:12:42;96500.53;;;2.95;92.78
71105;BME280;58760;48.716;8.962;2022-12-07T01:15:08;96505.63;;;2.96;92.08
71105;BME280;58760;48.716;8.962;2022-12-07T01:17:34;96503.53;;;2.90;92.26
71105;BME280;58760;48.716;8.962;2022-12-07T01:20:00;96492.28;;;2.99;92.20
71105;BME280;58760;48.716;8.962;2022-12-07T01:22:25;96500.41;;;2.96;91.71
71105;BME280;58760;48.716;8.962;2022-12-07T01:24:51;96511.09;;;3.04;91.59
71105;BME280;58760;48.716;8.962;2022-12-07T01:27:16;96507.63;;;3.04;90.31
71105;BME280;58760;48.716;8.962;2022-12-07T01:29:42;96505.97;;;3.03;90.36
71105;BME280;58760;48.716;8.962;2022-12-07T01:32:07;96508.97;;;2.98;90.10
71105;BME280;58760;48.716;8.962;2022-12-07T01:34:33;96519.00;;;2.93;90.69
71105;BME280;58760;48.716;8.962;2022-12-07T01:36:58;96513.06;;;2.91;90.90
71105;BME280;58760;48.716;8.962;2022-12-07T01:39:23;96511.38;;;2.90;91.04
71105;BME280;58760;48.716;8.962;2022-12-07T01:41:49;96507.25;;;2.88;90.62
71105;BME280;58760;48.716;8.962;2022-12-07T01:46:53;96521.28;;;2.87;91.13
71105;BME280;58760;48.716;8.962;2022-12-07T01:49:38;96519.13;;;2.92;90.88
71105;BME280;58760;48.716;8.962;2022-12-07T01:52:31;96521.19;;;2.88;90.85
71105;BME280;58760;48.716;8.962;2022-12-07T01:55:04;96526.53;;;2.87;90.60
71105;BME280;58760;48.716;8.962;2022-12-07T01:57:34;96523.66;;;2.90;90.40
71105;BME280;58760;48.716;8.962;2022-12-07T02:00:00;96518.56;;;2.88;90.58
71105;BME280;58760;48.716;8.962;2022-12-07T02:02:28;96517.97;;;2.85;90.22
71105;BME280;58760;48.716;8.962;2022-12-07T02:04:59;96509.53;;;2.81;90.13
71105;BME280;58760;48.716;8.962;2022-12-07T02:07:26;96522.88;;;2.78;90.52
71105;BME280;58760;48.716;8.962;2022-12-07T02:09:53;96519.75;;;2.84;90.73
71105;BME280;58760;48.716;8.962;2022-12-07T02:12:19;96519.16;;;2.81;90.84
71105;BME280;58760;48.716;8.962;2022-12-07T02:14:45;96527.66;;;2.73;91.24
71105;BME280;58760;48.716;8.962;2022-12-07T02:25:13;96523.13;;;2.75;91.46
71105;BME280;58760;48.716;8.962;2022-12-07T02:30:19;96514.56;;;2.73;91.36
71105;BME280;58760;48.716;8.962;2022-12-07T02:32:56;96510.97;;;2.74;91.40
71105;BME280;58760;48.716;8.962;2022-12-07T02:35:37;96506.00;;;2.71;91.54
71105;BME280;58760;48.716;8.962;2022-12-07T02:38:35;96510.47;;;2.80;91.41
71105;BME280;58760;48.716;8.962;2022-12-07T02:43:52;96517.72;;;2.88;91.74
71105;BME280;58760;48.716;8.962;2022-12-07T02:46:29;96514.06;;;2.79;90.96
71105;BME280;58760;48.716;8.962;2022-12-07T02:48:56;96504.91;;;2.74;91.34
71105;BME280;58760;48.716;8.962;2022-12-07T02:51:24;96502.53;;;2.71;92.28
71105;BME280;58760;48.716;8.962;2022-12-07T02:53:50;96503.94;;;2.86;91.67
71105;BME280;58760;48.716;8.962;2022-12-07T02:56:25;96498.47;;;2.78;91.55
71105;BME280;58760;48.716;8.962;2022-12-07T03:07:06;96484.03;;;2.51;93.10
71105;BME280;58760;48.716;8.962;2022-12-07T03:09:43;96483.03;;;2.63;93.68
71105;BME280;58760;48.716;8.962;2022-12-07T03:12:17;96492.97;;;2.60;93.22
71105;BME280;58760;48.716;8.962;2022-12-07T03:15:21;96493.44;;;2.54;93.57
71105;BME280;58760;48.716;8.962;2022-12-07T03:17:44;96484.38;;;2.58;93.64
71105;BME280;58760;48.716;8.962;2022-12-07T03:20:14;96486.31;;;2.56;93.15
71105;BME280;58760;48.716;8.962;2022-12-07T03:22:42;96488.19;;;2.54;93.11
71105;BME280;58760;48.716;8.962;2022-12-07T03:25:12;96483.72;;;2.45;93.38
71105;BME280;58760;48.716;8.962;2022-12-07T03:27:44;96488.94;;;2.45;93.69
71105;BME280;58760;48.716;8.962;2022-12-07T03:30:19;96483.34;;;2.49;93.62
71105;BME280;58760;48.716;8.962;2022-12-07T03:33:01;96486.22;;;2.46;93.52
71105;BME280;58760;48.716;8.962;2022-12-07T03:35:35;96488.38;;;2.41;94.15
71105;BME280;58760;48.716;8.962;2022-12-07T03:38:25;96479.41;;;2.55;93.83
71105;BME280;58760;48.716;8.962;2022-12-07T03:43:34;96479.56;;;2.42;94.69
71105;BME280;58760;48.716;8.962;2022-12-07T03:46:23;96478.72;;;2.42;94.36
71105;BME280;58760;48.716;8.962;2022-12-07T03:49:23;96474.41;;;2.52;93.47
71105;BME280;58760;48.716;8.962;2022-12-07T03:51:55;96476.44;;;2.48;92.82
71105;BME280;58760;48.716;8.962;2022-12-07T03:57:11;96480.66;;;2.40;92.42
71105;BME280;58760;48.716;8.962;2022-12-07T03:59:38;96480.16;;;2.35;92.71
71105;BME280;58760;48.716;8.962;2022-12-07T04:02:06;96481.41;;;2.31;93.20
71105;BME280;58760;48.716;8.962;2022-12-07T04:04:33;96474.25;;;2.33;93.84
71105;BME280;58760;48.716;8.962;2022-12-07T04:06:58;96473.41;;;2.32;93.67
71105;BME280;58760;48.716;8.962;2022-12-07T04:09:24;96470.09;;;2.30;93.79
71105;BME280;58760;48.716;8.962;2022-12-07T04:11:49;96477.81;;;2.32;93.94
71105;BME280;58760;48.716;8.962;2022-12-07T04:14:14;96470.94;;;2.31;93.77
71105;BME280;58760;48.716;8.962;2022-12-07T04:16:44;96467.50;;;2.51;92.39
71105;BME280;58760;48.716;8.962;2022-12-07T04:19:09;96460.13;;;2.56;90.44
71105;BME280;58760;48.716;8.962;2022-12-07T04:21:35;96467.25;;;2.54;91.34
71105;BME280;58760;48.716;8.962;2022-12-07T04:24:00;96467.66;;;2.38;91.45
71105;BME280;58760;48.716;8.962;2022-12-07T04:26:25;96471.13;;;2.39;92.06
71105;BME280;58760;48.716;8.962;2022-12-07T04:28:51;96478.03;;;2.40;92.21
71105;BME280;58760;48.716;8.962;2022-12-07T04:31:16;96472.91;;;2.38;91.60
71105;BME280;58760;48.716;8.962;2022-12-07T04:33:41;96465.69;;;2.31;92.06
71105;BME280;58760;48.716;8.962;2022-12-07T04:36:07;96467.47;;;2.30;92.62
71105;BME280;58760;48.716;8.962;2022-12-07T04:38:32;96473.88;;;2.37;91.85
71105;BME280;58760;48.716;8.962;2022-12-07T04:40:58;96468.75;;;2.36;91.58
71105;BME280;58760;48.716;8.962;2022-12-07T04:43:23;96468.41;;;2.29;91.54
71105;BME280;58760;48.716;8.962;2022-12-07T04:45:48;96467.84;;;2.26;91.89
71105;BME280;58760;48.716;8.962;2022-12-07T04:48:14;96459.78;;;2.18;92.24
71105;BME280;58760;48.716;8.962;2022-12-07T04:50:40;96457.28;;;2.16;92.37
71105;BME280;58760;48.716;8.962;2022-12-07T04:53:05;96457.03;;;2.19;92.50
71105;BME280;58760;48.716;8.962;2022-12-07T04:55:31;96443.34;;;2.16;92.04
71105;BME280;58760;48.716;8.962;2022-12-07T04:57:56;96443.84;;;2.09;91.80
71105;BME280;58760;48.716;8.962;2022-12-07T05:00:21;96440.31;;;1.99;92.24
71105;BME280;58760;48.716;8.962;2022-12-07T05:02:47;96441.28;;;1.87;92.14
71105;BME280;58760;48.716;8.962;2022-12-07T05:05:12;96434.38;;;1.86;92.56
71105;BME280;58760;48.716;8.962;2022-12-07T05:07:38;96443.66;;;1.79;92.29
71105;BME280;58760;48.716;8.962;2022-12-07T05:10:04;96444.75;;;1.77;93.00
71105;BME280;58760;48.716;8.962;2022-12-07T05:12:30;96440.47;;;1.76;93.02
71105;BME280;58760;48.716;8.962;2022-12-07T05:14:55;96431.91;;;1.85;93.23
71105;BME280;58760;48.716;8.962;2022-12-07T05:17:20;96437.28;;;1.61;93.58
71105;BME280;58760;48.716;8.962;2022-12-07T05:19:46;96437.53;;;1.47;94.12
71105;BME280;58760;48.716;8.962;2022-12-07T05:22:11;96434.69;;;1.39;94.75
71105;BME280;58760;48.716;8.962;2022-12-07T05:24:36;96437.28;;;1.28;94.97
71105;BME280;58760;48.716;8.962;2022-12-07T05:27:02;96429.56;;;1.15;95.46
71105;BME280;58760;48.716;8.962;2022-12-07T05:29:27;96431.44;;;1.02;95.61
71105;BME280;58760;48.716;8.962;2022-12-07T05:31:52;96439.88;;;0.94;95.84
71105;BME280;58760;48.716;8.962;2022-12-07T05:34:18;96447.13;;;1.02;96.10
71105;BME280;58760;48.716;8.962;2022-12-07T05:36:43;96449.41;;;1.07;95.22
71105;BME280;58760;48.716;8.962;2022-12-07T05:39:09;96452.56;;;0.88;94.58
71105;BME280;58760;48.716;8.962;2022-12-07T05:41:35;96451.47;;;0.79;94.68
71105;BME280;58760;48.716;8.962;2022-12-07T05:44:19;96453.84;;;0.71;95.02
71105;BME280;58760;48.716;8.962;2022-12-07T05:46:44;96449.22;;;0.75;95.20
71105;BME280;58760;48.716;8.962;2022-12-07T05:49:09;96455.13;;;0.66;94.95
71105;BME280;58760;48.716;8.962;2022-12-07T05:51:35;96460.78;;;0.60;95.06
71105;BME280;58760;48.716;8.962;2022-12-07T05:54:00;96463.56;;;0.69;94.91
71105;BME280;58760;48.716;8.962;2022-12-07T05:56:25;96469.94;;;0.65;94.59
71105;BME280;58760;48.716;8.962;2022-12-07T05:58:52;96462.25;;;0.64;94.57
71105;BME280;58760;48.716;8.962;2022-12-07T06:01:36;96457.19;;;0.49;93.47
71105;BME280;58760;48.716;8.962;2022-12-07T06:04:01;96463.72;;;0.44;93.74
71105;BME280;58760;48.716;8.962;2022-12-07T06:06:26;96457.94;;;0.51;94.32
71105;BME280;58760;48.716;8.962;2022-12-07T06:08:52;96464.81;;;0.52;94.63
71105;BME280;58760;48.716;8.962;2022-12-07T06:11:17;96467.69;;;0.61;94.81
71105;BME280;58760;48.716;8.962;2022-12-07T06:14:01;96470.06;;;0.64;94.85
71105;BME280;58760;48.716;8.962;2022-12-07T06:16:27;96460.63;;;0.85;94.49
71105;BME280;58760;48.716;8.962;2022-12-07T06:18:52;96461.53;;;1.19;92.48
71105;BME280;58760;48.716;8.962;2022-12-07T06:21:17;96458.66;;;1.22;91.22
71105;BME280;58760;48.716;8.962;2022-12-07T06:23:43;96474.31;;;0.99;91.33
71105;BME280;58760;48.716;8.962;2022-12-07T06:26:08;96466.72;;;1.08;91.45
71105;BME280;58760;48.716;8.962;2022-12-07T06:28:33;96474.19;;;1.01;91.74
71105;BME280;58760;48.716;8.962;2022-12-07T06:31:02;96485.84;;;0.97;92.27
71105;BME280;58760;48.716;8.962;2022-12-07T06:33:28;96482.38;;;0.96;92.42
71105;BME280;58760;48.716;8.962;2022-12-07T06:35:54;96487.28;;;1.12;91.56
71105;BME280;58760;48.716;8.962;2022-12-07T06:38:19;96484.56;;;1.25;91.29
71105;BME280;58760;48.716;8.962;2022-12-07T06:40:45;96496.94;;;1.67;89.41
71105;BME280;58760;48.716;8.962;2022-12-07T06:43:10;96479.59;;;1.33;89.34
71105;BME280;58760;48.716;8.962;2022-12-07T06:45:35;96473.97;;;1.15;90.09
71105;BME280;58760;48.716;8.962;2022-12-07T06:48:01;96481.13;;;1.13;90.80
71105;BME280;58760;48.716;8.962;2022-12-07T06:50:26;96482.66;;;1.16;90.80
71105;BME280;58760;48.716;8.962;2022-12-07T06:52:52;96486.00;;;1.29;90.39
71105;BME280;58760;48.716;8.962;2022-12-07T06:55:17;96485.88;;;1.30;89.60
71105;BME280;58760;48.716;8.962;2022-12-07T06:57:43;96481.13;;;1.35;89.10
71105;BME280;58760;48.716;8.962;2022-12-07T07:00:09;96484.09;;;1.31;89.13
71105;BME280;58760;48.716;8.962;2022-12-07T07:02:34;96487.19;;;1.36;89.00
71105;BME280;58760;48.716;8.962;2022-12-07T07:04:59;96476.75;;;1.36;89.13
71105;BME280;58760;48.716;8.962;2022-12-07T07:07:25;96478.31;;;1.49;88.76
71105;BME280;58760;48.716;8.962;2022-12-07T07:09:50;96479.94;;;1.50;88.56
71105;BME280;58760;48.716;8.962;2022-12-07T07:12:15;96477.34;;;1.50;88.79
71105;BME280;58760;48.716;8.962;2022-12-07T07:14:41;96472.72;;;1.43;89.12
71105;BME280;58760;48.716;8.962;2022-12-07T07:17:07;96483.84;;;1.34;90.10
71105;BME280;58760;48.716;8.962;2022-12-07T07:19:32;96480.78;;;1.29;91.16
71105;BME280;58760;48.716;8.962;2022-12-07T07:21:57;96482.06;;;1.34;91.30
71105;BME280;58760;48.716;8.962;2022-12-07T07:24:23;96471.53;;;1.36;91.58
71105;BME280;58760;48.716;8.962;2022-12-07T07:26:48;96473.16;;;1.37;91.54
71105;BME280;58760;48.716;8.962;2022-12-07T07:29:14;96470.91;;;1.32;91.97
71105;BME280;58760;48.716;8.962;2022-12-07T07:31:39;96472.69;;;1.54;91.93
71105;BME280;58760;48.716;8.962;2022-12-07T07:34:04;96475.22;;;1.55;91.35
71105;BME280;58760;48.716;8.962;2022-12-07T07:36:30;96471.03;;;1.53;91.04
71105;BME280;58760;48.716;8.962;2022-12-07T07:38:55;96478.25;;;1.27;91.47
71105;BME280;58760;48.716;8.962;2022-12-07T07:41:21;96473.88;;;1.28;92.27
71105;BME280;58760;48.716;8.962;2022-12-07T07:43:46;96479.09;;;1.17;91.84
71105;BME280;58760;48.716;8.962;2022-12-07T07:46:11;96486.94;;;1.17;92.39
71105;BME280;58760;48.716;8.962;2022-12-07T07:48:37;96485.28;;;1.16;92.19
71105;BME280;58760;48.716;8.962;2022-12-07T07:51:08;96493.94;;;1.16;91.50
71105;BME280;58760;48.716;8.962;2022-12-07T07:53:34;96484.34;;;1.17;91.21
71105;BME280;58760;48.716;8.962;2022-12-07T07:55:59;96487.19;;;1.14;91.05
71105;BME280;58760;48.716;8.962;2022-12-07T07:58:25;96495.81;;;1.03;90.29
71105;BME280;58760;48.716;8.962;2022-12-07T08:00:50;96498.81;;;1.10;91.06
71105;BME280;58760;48.716;8.962;2022-12-07T08:03:16;96495.81;;;1.03;90.56
71105;BME280;58760;48.716;8.962;2022-12-07T08:05:41;96501.78;;;1.16;91.30
71105;BME280;58760;48.716;8.962;2022-12-07T08:08:06;96496.16;;;0.98;89.08
71105;BME280;58760;48.716;8.962;2022-12-07T08:10:32;96487.16;;;1.02;87.92
71105;BME280;58760;48.716;8.962;2022-12-07T08:12:58;96499.47;;;0.89;86.99
71105;BME280;58760;48.716;8.962;2022-12-07T08:15:46;96501.03;;;1.03;89.72
71105;BME280;58760;48.716;8.962;2022-12-07T08:18:12;96506.66;;;1.10;89.84
71105;BME280;58760;48.716;8.962;2022-12-07T08:20:38;96501.88;;;1.15;90.12
71105;BME280;58760;48.716;8.962;2022-12-07T08:23:05;96499.16;;;1.27;88.38
71105;BME280;58760;48.716;8.962;2022-12-07T08:25:31;96498.97;;;1.52;88.10
71105;BME280;58760;48.716;8.962;2022-12-07T08:27:57;96494.78;;;1.83;88.82
71105;BME280;58760;48.716;8.962;2022-12-07T08:30:22;96504.94;;;1.66;88.72
71105;BME280;58760;48.716;8.962;2022-12-07T08:32:48;96508.09;;;1.69;88.59
71105;BME280;58760;48.716;8.962;2022-12-07T08:35:14;96517.75;;;1.80;88.89
71105;BME280;58760;48.716;8.962;2022-12-07T08:37:40;96511.56;;;1.70;87.06
71105;BME280;58760;48.716;8.962;2022-12-07T08:40:07;96509.31;;;1.65;86.96
71105;BME280;58760;48.716;8.962;2022-12-07T08:42:33;96513.25;;;1.82;88.59
71105;BME280;58760;48.716;8.962;2022-12-07T08:45:06;96510.59;;;1.93;86.87
71105;BME280;58760;48.716;8.962;2022-12-07T08:47:33;96522.28;;;1.78;86.01
71105;BME280;58760;48.716;8.962;2022-12-07T08:50:00;96516.44;;;1.63;85.74
71105;BME280;58760;48.716;8.962;2022-12-07T08:52:30;96524.06;;;1.88;87.21
71105;BME280;58760;48.716;8.962;2022-12-07T08:54:55;96519.53;;;2.01;86.78
71105;BME280;58760;48.716;8.962;2022-12-07T08:57:21;96519.28;;;2.04;84.87
71105;BME280;58760;48.716;8.962;2022-12-07T08:59:46;96508.19;;;2.12;84.23
71105;BME280;58760;48.716;8.962;2022-12-07T09:02:12;96512.13;;;1.95;84.23
71105;BME280;58760;48.716;8.962;2022-12-07T09:04:37;96521.41;;;2.10;85.73
71105;BME280;58760;48.716;8.962;2022-12-07T09:07:03;96516.06;;;2.01;83.30
71105;BME280;58760;48.716;8.962;2022-12-07T09:09:29;96516.91;;;2.01;81.68
71105;BME280;58760;48.716;8.962;2022-12-07T09:11:54;96521.53;;;1.76;80.66
71105;BME280;58760;48.716;8.962;2022-12-07T09:14:20;96514.78;;;1.62;81.03
71105;BME280;58760;48.716;8.962;2022-12-07T09:16:45;96519.28;;;1.93;82.49
71105;BME280;58760;48.716;8.962;2022-12-07T09:19:11;96504.91;;;1.88;81.02
71105;BME280;58760;48.716;8.962;2022-12-07T09:21:36;96517.47;;;2.05;82.59
71105;BME280;58760;48.716;8.962;2022-12-07T09:24:02;96520.94;;;2.59;84.36
71105;BME280;58760;48.716;8.962;2022-12-07T09:26:27;96517.47;;;2.59;82.38
71105;BME280;58760;48.716;8.962;2022-12-07T09:28:53;96511.91;;;2.52;80.20
71105;BME280;58760;48.716;8.962;2022-12-07T09:31:18;96510.81;;;2.55;81.34
71105;BME280;58760;48.716;8.962;2022-12-07T09:33:43;96513.34;;;2.56;80.41
71105;BME280;58760;48.716;8.962;2022-12-07T09:36:09;96511.22;;;2.71;80.35
71105;BME280;58760;48.716;8.962;2022-12-07T09:38:35;96499.16;;;2.80;80.52
71105;BME280;58760;48.716;8.962;2022-12-07T09:41:06;96506.63;;;2.95;79.58
71105;BME280;58760;48.716;8.962;2022-12-07T09:43:33;96498.25;;;3.01;79.38
71105;BME280;58760;48.716;8.962;2022-12-07T09:46:00;96498.56;;;3.08;78.97
71105;BME280;58760;48.716;8.962;2022-12-07T09:48:30;96502.50;;;3.23;76.68
71105;BME280;58760;48.716;8.962;2022-12-07T09:50:58;96500.78;;;3.12;77.16
71105;BME280;58760;48.716;8.962;2022-12-07T09:53:34;96499.94;;;3.33;76.55
71105;BME280;58760;48.716;8.962;2022-12-07T09:56:01;96494.28;;;3.28;76.93
71105;BME280;58760;48.716;8.962;2022-12-07T09:58:28;96485.56;;;3.27;77.87
71105;BME280;58760;48.716;8.962;2022-12-07T10:03:32;96485.97;;;3.53;76.50
71105;BME280;58760;48.716;8.962;2022-12-07T10:05:58;96479.38;;;3.58;76.56
71105;BME280;58760;48.716;8.962;2022-12-07T10:08:26;96475.75;;;3.80;74.76
71105;BME280;58760;48.716;8.962;2022-12-07T10:10:54;96483.41;;;3.62;75.69
71105;BME280;58760;48.716;8.962;2022-12-07T10:13:42;96479.81;;;3.63;76.26
71105;BME280;58760;48.716;8.962;2022-12-07T10:19:18;96466.34;;;3.87;76.92
71105;BME280;58760;48.716;8.962;2022-12-07T10:24:24;96462.28;;;4.13;74.75
71105;BME280;58760;48.716;8.962;2022-12-07T10:26:51;96453.19;;;4.27;74.70
71105;BME280;58760;48.716;8.962;2022-12-07T10:29:21;96456.84;;;4.45;74.24
71105;BME280;58760;48.716;8.962;2022-12-07T10:31:53;96454.88;;;4.38;73.82
71105;BME280;58760;48.716;8.962;2022-12-07T10:34:27;96451.84;;;4.52;73.27
71105;BME280;58760;48.716;8.962;2022-12-07T10:39:48;96455.16;;;4.63;71.60
71105;BME280;58760;48.716;8.962;2022-12-07T10:42:25;96452.13;;;4.78;73.07
71105;BME280;58760;48.716;8.962;2022-12-07T10:45:13;96447.69;;;4.78;72.38
71105;BME280;58760;48.716;8.962;2022-12-07T10:47:51;96450.84;;;4.91;71.14
71105;BME280;58760;48.716;8.962;2022-12-07T11:01:51;96432.41;;;5.20;70.97
71105;BME280;58760;48.716;8.962;2022-12-07T11:09:57;96426.75;;;5.05;71.93
71105;BME280;58760;48.716;8.962;2022-12-07T11:23:04;96415.53;;;5.22;72.25
71105;BME280;58760;48.716;8.962;2022-12-07T11:36:48;96397.44;;;5.10;72.98
71105;BME280;58760;48.716;8.962;2022-12-07T11:41:46;96392.19;;;5.00;73.04
71105;BME280;58760;48.716;8.962;2022-12-07T11:44:38;96390.53;;;4.90;73.46
71105;BME280;58760;48.716;8.962;2022-12-07T11:47:09;96387.72;;;5.01;72.72
71105;BME280;58760;48.716;8.962;2022-12-07T11:49:55;96388.47;;;4.93;73.22
71105;BME280;58760;48.716;8.962;2022-12-07T12:06:37;96377.19;;;4.45;77.25
71105;BME280;58760;48.716;8.962;2022-12-07T12:09:12;96377.19;;;4.35;78.32
71105;BME280;58760;48.716;8.962;2022-12-07T12:14:41;96383.69;;;4.21;78.59
71105;BME280;58760;48.716;8.962;2022-12-07T12:20:05;96372.22;;;4.22;78.78
71105;BME280;58760;48.716;8.962;2022-12-07T12:22:39;96377.31;;;4.14;78.35
71105;BME280;58760;48.716;8.962;2022-12-07T12:25:19;96368.03;;;4.10;78.37
71105;BME280;58760;48.716;8.962;2022-12-07T12:27:50;96369.44;;;4.14;78.43
71105;BME280;58760;48.716;8.962;2022-12-07T12:32:51;96363.50;;;4.12;77.44
71105;BME280;58760;48.716;8.962;2022-12-07T12:35:35;96362.66;;;4.02;78.12
71105;BME280;58760;48.716;8.962;2022-12-07T12:40:48;96369.03;;;4.09;78.77
71105;BME280;58760;48.716;8.962;2022-12-07T12:43:46;96361.16;;;4.09;78.72
71105;BME280;58760;48.716;8.962;2022-12-07T12:54:25;96352.00;;;4.13;78.96
71105;BME280;58760;48.716;8.962;2022-12-07T13:02:29;96358.25;;;3.93;79.01
71105;BME280;58760;48.716;8.962;2022-12-07T13:05:29;96348.72;;;4.02;79.06
71105;BME280;58760;48.716;8.962;2022-12-07T13:10:34;96339.59;;;4.25;77.93
71105;BME280;58760;48.716;8.962;2022-12-07T13:15:51;96346.34;;;4.47;77.27
71105;BME280;58760;48.716;8.962;2022-12-07T13:28:40;96330.47;;;4.48;75.08
71105;BME280;58760;48.716;8.962;2022-12-07T13:33:57;96329.88;;;4.64;74.93
71105;BME280;58760;48.716;8.962;2022-12-07T13:36:28;96326.00;;;4.68;75.18
71105;BME280;58760;48.716;8.962;2022-12-07T13:39:32;96326.69;;;4.60;74.86
71105;BME280;58760;48.716;8.962;2022-12-07T13:41:57;96314.13;;;4.54;74.82
71105;BME280;58760;48.716;8.962;2022-12-07T13:44:24;96319.50;;;4.53;75.12
71105;BME280;58760;48.716;8.962;2022-12-07T13:47:04;96314.44;;;4.42;75.53
71105;BME280;58760;48.716;8.962;2022-12-07T13:49:37;96314.44;;;4.22;76.23
71105;BME280;58760;48.716;8.962;2022-12-07T13:52:14;96323.69;;;4.07;76.95
71105;BME280;58760;48.716;8.962;2022-12-07T13:54:47;96313.63;;;3.93;76.87
71105;BME280;58760;48.716;8.962;2022-12-07T13:57:14;96316.09;;;3.95;77.00
71105;BME280;58760;48.716;8.962;2022-12-07T13:59:40;96321.91;;;3.98;77.14
71105;BME280;58760;48.716;8.962;2022-12-07T14:04:45;96318.31;;;3.90;77.69
71105;BME280;58760;48.716;8.962;2022-12-07T14:07:28;96324.78;;;3.86;78.02
71105;BME280;58760;48.716;8.962;2022-12-07T14:10:05;96317.19;;;3.92;78.10
71105;BME280;58760;48.716;8.962;2022-12-07T14:12:31;96321.22;;;3.87;78.66
71105;BME280;58760;48.716;8.962;2022-12-07T14:14:59;96316.09;;;4.04;77.83
71105;BME280;58760;48.716;8.962;2022-12-07T14:17:27;96310.28;;;4.01;77.71
71105;BME280;58760;48.716;8.962;2022-12-07T14:19:57;96311.94;;;4.02;77.14
71105;BME280;58760;48.716;8.962;2022-12-07T14:22:35;96318.88;;;4.03;77.36
71105;BME280;58760;48.716;8.962;2022-12-07T14:27:39;96315.13;;;4.05;77.28
71105;BME280;58760;48.716;8.962;2022-12-07T14:30:16;96309.72;;;4.16;77.19
71105;BME280;58760;48.716;8.962;2022-12-07T14:32:42;96312.78;;;4.12;76.73
71105;BME280;58760;48.716;8.962;2022-12-07T14:35:14;96308.94;;;4.06;77.21
71105;BME280;58760;48.716;8.962;2022-12-07T14:37:42;96315.41;;;4.12;77.59
71105;BME280;58760;48.716;8.962;2022-12-07T14:40:16;96312.34;;;3.97;77.59
71105;BME280;58760;48.716;8.962;2022-12-07T14:42:45;96314.56;;;3.92;77.68
71105;BME280;58760;48.716;8.962;2022-12-07T14:45:17;96321.72;;;3.81;78.80
71105;BME280;58760;48.716;8.962;2022-12-07T14:47:43;96313.47;;;3.85;79.26
71105;BME280;58760;48.716;8.962;2022-12-07T14:50:12;96322.72;;;3.99;77.83
71105;BME280;58760;48.716;8.962;2022-12-07T14:52:39;96314.97;;;3.97;78.14
71105;BME280;58760;48.716;8.962;2022-12-07T14:55:07;96321.91;;;3.98;78.25
71105;BME280;58760;48.716;8.962;2022-12-07T14:57:37;96318.03;;;3.93;77.98
71105;BME280;58760;48.716;8.962;2022-12-07T15:00:03;96319.41;;;3.87;78.69
71105;BME280;58760;48.716;8.962;2022-12-07T15:02:29;96320.66;;;3.74;79.50
71105;BME280;58760;48.716;8.962;2022-12-07T15:04:54;96318.16;;;3.72;79.86
71105;BME280;58760;48.716;8.962;2022-12-07T15:07:21;96321.59;;;3.82;79.90
71105;BME280;58760;48.716;8.962;2022-12-07T15:09:47;96326.59;;;3.85;80.16
71105;BME280;58760;48.716;8.962;2022-12-07T15:12:13;96316.38;;;3.92;80.72
71105;BME280;58760;48.716;8.962;2022-12-07T15:14:38;96315.81;;;3.79;80.77
71105;BME280;58760;48.716;8.962;2022-12-07T15:17:04;96320.50;;;3.75;81.29
71105;BME280;58760;48.716;8.962;2022-12-07T15:19:29;96319.25;;;3.69;81.39
71105;BME280;58760;48.716;8.962;2022-12-07T15:21:55;96322.16;;;3.66;81.11
71105;BME280;58760;48.716;8.962;2022-12-07T15:24:21;96321.84;;;3.60;81.59
71105;BME280;58760;48.716;8.962;2022-12-07T15:26:47;96317.72;;;3.57;82.24
71105;BME280;58760;48.716;8.962;2022-12-07T15:29:12;96317.97;;;3.54;82.44
71105;BME280;58760;48.716;8.962;2022-12-07T15:31:39;96315.09;;;3.57;81.98
71105;BME280;58760;48.716;8.962;2022-12-07T15:34:05;96315.34;;;3.54;82.26
71105;BME280;58760;48.716;8.962;2022-12-07T15:36:32;96317.44;;;3.51;82.20
71105;BME280;58760;48.716;8.962;2022-12-07T15:38:58;96323.63;;;3.50;82.36
71105;BME280;58760;48.716;8.962;2022-12-07T15:41:23;96317.53;;;3.40;82.84
71105;BME280;58760;48.716;8.962;2022-12-07T15:43:49;96326.91;;;3.42;83.36